sensor_id;sensor_type;location;lat;lon;timestamp;pressure;altitude;pressure_sealevel;temperature;humidity
21357;BME280;10836;53.068;18.234;2023-02-17T00:00:56;101322.75;;;4.00;100.00
21357;BME280;10836;53.068;18.234;2023-02-17T00:03:23;101315.69;;;3.99;100.00
21357;BME280;10836;53.068;18.234;2023-02-17T00:05:51;101323.59;;;3.94;100.00
21357;BME280;10836;53.068;18.234;2023-02-17T00:08:18;101319.44;;;3.98;100.00
21357;BME280;10836;53.068;18.234;2023-02-17T00:10:54;101322.75;;;4.00;100.00
21357;BME280;10836;53.068;18.234;2023-02-17T00:13:22;101323.78;;;4.06;100.00
21357;BME280;10836;53.068;18.234;2023-02-17T00:15:49;101320.38;;;4.17;100.00
21357;BME280;10836;53.068;18.234;2023-02-17T00:18:16;101315.44;;;4.08;100.00
21357;BME280;10836;53.068;18.234;2023-02-17T00:20:43;101304.81;;;4.13;100.00
21357;BME280;10836;53.068;18.234;2023-02-17T00:23:10;101307.25;;;4.27;100.00
21357;BME280;10836;53.068;18.234;2023-02-17T00:25:37;101301.66;;;4.22;100.00
21357;BME280;10836;53.068;18.234;2023-02-17T00:28:04;101314.19;;;4.10;100.00
21357;BME280;10836;53.068;18.234;2023-02-17T00:30:32;101306.91;;;4.11;100.00
21357;BME280;10836;53.068;18.234;2023-02-17T00:32:59;101307.34;;;4.08;100.00
21357;BME280;10836;53.068;18.234;2023-02-17T00:35:26;101306.91;;;4.11;100.00
21357;BME280;10836;53.068;18.234;2023-02-17T00:37:53;101317.09;;;4.09;100.00
21357;BME280;10836;53.068;18.234;2023-02-17T00:40:20;101309.59;;;4.11;100.00
21357;BME280;10836;53.068;18.234;2023-02-17T00:42:47;101307.31;;;4.14;100.00
21357;BME280;10836;53.068;18.234;2023-02-17T00:45:15;101296.91;;;4.18;100.00
21357;BME280;10836;53.068;18.234;2023-02-17T00:47:42;101291.53;;;4.11;100.00
21357;BME280;10836;53.068;18.234;2023-02-17T00:50:09;101293.56;;;4.16;100.00
21357;BME280;10836;53.068;18.234;2023-02-17T00:52:36;101289.81;;;4.17;100.00
21357;BME280;10836;53.068;18.234;2023-02-17T00:55:03;101290.00;;;4.22;100.00
21357;BME280;10836;53.068;18.234;2023-02-17T01:02:01;101286.66;;;4.26;100.00
21357;BME280;10836;53.068;18.234;2023-02-17T01:04:28;101276.84;;;4.32;100.00
21357;BME280;10836;53.068;18.234;2023-02-17T01:06:55;101282.47;;;4.30;100.00
21357;BME280;10836;53.068;18.234;2023-02-17T01:09:22;101275.63;;;4.28;100.00
21357;BME280;10836;53.068;18.234;2023-02-17T01:11:49;101276.84;;;4.32;100.00
21357;BME280;10836;53.068;18.234;2023-02-17T01:14:16;101279.69;;;4.37;100.00
21357;BME280;10836;53.068;18.234;2023-02-17T01:16:46;101273.25;;;4.38;100.00
21357;BME280;10836;53.068;18.234;2023-02-17T01:19:16;101260.16;;;4.35;100.00
21357;BME280;10836;53.068;18.234;2023-02-17T01:21:47;101258.50;;;4.34;100.00
21357;BME280;10836;53.068;18.234;2023-02-17T01:24:15;101248.16;;;4.31;100.00
21357;BME280;10836;53.068;18.234;2023-02-17T01:26:41;101242.03;;;4.42;100.00
21357;BME280;10836;53.068;18.234;2023-02-17T01:29:09;101242.19;;;4.47;100.00
21357;BME280;10836;53.068;18.234;2023-02-17T01:31:36;101234.69;;;4.49;100.00
21357;BME280;10836;53.068;18.234;2023-02-17T01:34:03;101228.84;;;4.52;100.00
21357;BME280;10836;53.068;18.234;2023-02-17T01:36:31;101230.06;;;4.56;100.00
21357;BME280;10836;53.068;18.234;2023-02-17T01:38:58;101222.56;;;4.58;100.00
21357;BME280;10836;53.068;18.234;2023-02-17T01:41:26;101224.53;;;4.70;100.00
21357;BME280;10836;53.068;18.234;2023-02-17T01:46:33;101204.66;;;4.57;100.00
21357;BME280;10836;53.068;18.234;2023-02-17T01:49:03;101216.31;;;4.58;100.00
21357;BME280;10836;53.068;18.234;2023-02-17T01:51:35;101203.28;;;4.48;100.00
21357;BME280;10836;53.068;18.234;2023-02-17T01:54:09;101205.94;;;4.55;100.00
21357;BME280;10836;53.068;18.234;2023-02-17T01:56:40;101206.16;;;4.53;100.00
21357;BME280;10836;53.068;18.234;2023-02-17T01:59:17;101202.56;;;4.59;100.00
21357;BME280;10836;53.068;18.234;2023-02-17T02:01:50;101198.75;;;4.67;100.00
21357;BME280;10836;53.068;18.234;2023-02-17T02:04:21;101191.84;;;4.71;100.00
21357;BME280;10836;53.068;18.234;2023-02-17T02:06:50;101189.97;;;4.72;100.00
21357;BME280;10836;53.068;18.234;2023-02-17T02:09:22;101187.50;;;4.70;100.00
21357;BME280;10836;53.068;18.234;2023-02-17T02:11:51;101187.88;;;4.74;100.00
21357;BME280;10836;53.068;18.234;2023-02-17T02:14:19;101179.16;;;4.72;100.00
21357;BME280;10836;53.068;18.234;2023-02-17T02:28:36;101171.47;;;4.87;100.00
21357;BME280;10836;53.068;18.234;2023-02-17T02:31:59;101166.53;;;4.84;100.00
21357;BME280;10836;53.068;18.234;2023-02-17T02:34:09;101167.41;;;4.78;100.00
21357;BME280;10836;53.068;18.234;2023-02-17T02:36:45;101169.53;;;4.76;100.00
21357;BME280;10836;53.068;18.234;2023-02-17T02:39:17;101172.69;;;4.73;100.00
21357;BME280;10836;53.068;18.234;2023-02-17T02:44:16;101167.13;;;4.67;100.00
21357;BME280;10836;53.068;18.234;2023-02-17T02:46:44;101161.88;;;4.73;100.00
21357;BME280;10836;53.068;18.234;2023-02-17T02:49:12;101166.22;;;4.74;100.00
21357;BME280;10836;53.068;18.234;2023-02-17T02:51:54;101161.72;;;4.67;100.00
21357;BME280;10836;53.068;18.234;2023-02-17T02:54:43;101154.66;;;4.66;100.00
21357;BME280;10836;53.068;18.234;2023-02-17T03:02:47;101149.84;;;4.68;100.00
21357;BME280;10836;53.068;18.234;2023-02-17T03:05:54;101139.47;;;4.65;100.00
21357;BME280;10836;53.068;18.234;2023-02-17T03:08:37;101135.09;;;4.64;100.00
21357;BME280;10836;53.068;18.234;2023-02-17T03:11:06;101141.19;;;4.60;100.00
21357;BME280;10836;53.068;18.234;2023-02-17T03:13:35;101141.03;;;4.55;100.00
21357;BME280;10836;53.068;18.234;2023-02-17T03:16:07;101139.47;;;4.65;100.00
21357;BME280;10836;53.068;18.234;2023-02-17T03:18:35;101138.41;;;4.66;100.00
21357;BME280;10836;53.068;18.234;2023-02-17T03:21:10;101133.00;;;4.66;100.00
21357;BME280;10836;53.068;18.234;2023-02-17T03:23:41;101129.25;;;4.67;100.00
21357;BME280;10836;53.068;18.234;2023-02-17T03:26:08;101129.69;;;4.64;100.00
21357;BME280;10836;53.068;18.234;2023-02-17T03:28:35;101122.13;;;4.73;100.00
21357;BME280;10836;53.068;18.234;2023-02-17T03:31:02;101121.75;;;4.70;100.00
21357;BME280;10836;53.068;18.234;2023-02-17T03:33:29;101114.00;;;4.73;100.00
21357;BME280;10836;53.068;18.234;2023-02-17T03:35:56;101114.22;;;4.72;100.00
21357;BME280;10836;53.068;18.234;2023-02-17T03:38:23;101111.91;;;4.75;100.00
21357;BME280;10836;53.068;18.234;2023-02-17T03:40:50;101114.84;;;4.74;100.00
21357;BME280;10836;53.068;18.234;2023-02-17T03:43:19;101110.03;;;4.76;100.00
21357;BME280;10836;53.068;18.234;2023-02-17T03:45:46;101112.13;;;4.74;100.00
21357;BME280;10836;53.068;18.234;2023-02-17T03:48:13;101107.63;;;4.67;100.00
21357;BME280;10836;53.068;18.234;2023-02-17T03:50:40;101112.56;;;4.71;100.00
21357;BME280;10836;53.068;18.234;2023-02-17T03:53:07;101114.97;;;4.79;100.00
21357;BME280;10836;53.068;18.234;2023-02-17T03:55:34;101104.63;;;4.76;100.00
21357;BME280;10836;53.068;18.234;2023-02-17T03:58:01;101106.13;;;4.72;100.00
21357;BME280;10836;53.068;18.234;2023-02-17T04:00:27;101106.72;;;4.74;100.00
21357;BME280;10836;53.068;18.234;2023-02-17T04:02:55;101087.69;;;4.80;100.00
21357;BME280;10836;53.068;18.234;2023-02-17T04:05:23;101087.44;;;4.82;100.00
21357;BME280;10836;53.068;18.234;2023-02-17T04:07:51;101074.53;;;4.84;100.00
21357;BME280;10836;53.068;18.234;2023-02-17T04:10:18;101066.19;;;4.85;100.00
21357;BME280;10836;53.068;18.234;2023-02-17T04:12:45;101065.34;;;4.85;100.00
21357;BME280;10836;53.068;18.234;2023-02-17T04:15:12;101061.44;;;4.81;100.00
21357;BME280;10836;53.068;18.234;2023-02-17T04:17:39;101060.31;;;4.88;100.00
21357;BME280;10836;53.068;18.234;2023-02-17T04:20:06;101057.84;;;4.87;100.00
21357;BME280;10836;53.068;18.234;2023-02-17T04:22:33;101059.34;;;4.83;100.00
21357;BME280;10836;53.068;18.234;2023-02-17T04:25:00;101058.28;;;4.84;100.00
21357;BME280;10836;53.068;18.234;2023-02-17T04:27:27;101057.47;;;4.83;100.00
21357;BME280;10836;53.068;18.234;2023-02-17T04:29:54;101057.38;;;4.90;100.00
21357;BME280;10836;53.068;18.234;2023-02-17T04:32:21;101059.50;;;4.88;100.00
21357;BME280;10836;53.068;18.234;2023-02-17T04:34:48;101047.00;;;4.87;100.00
21357;BME280;10836;53.068;18.234;2023-02-17T04:37:15;101043.72;;;4.85;100.00
21357;BME280;10836;53.068;18.234;2023-02-17T04:39:41;101043.72;;;4.85;100.00
21357;BME280;10836;53.068;18.234;2023-02-17T04:42:08;101044.91;;;4.89;100.00
21357;BME280;10836;53.068;18.234;2023-02-17T04:44:35;101041.59;;;4.87;100.00
21357;BME280;10836;53.068;18.234;2023-02-17T04:47:02;101049.50;;;4.88;100.00
21357;BME280;10836;53.068;18.234;2023-02-17T04:49:29;101041.59;;;4.87;100.00
21357;BME280;10836;53.068;18.234;2023-02-17T04:51:56;101039.50;;;4.89;100.00
21357;BME280;10836;53.068;18.234;2023-02-17T04:54:23;101037.00;;;4.87;100.00
21357;BME280;10836;53.068;18.234;2023-02-17T04:56:50;101044.75;;;4.84;100.00
21357;BME280;10836;53.068;18.234;2023-02-17T04:59:17;101039.56;;;4.82;100.00
21357;BME280;10836;53.068;18.234;2023-02-17T05:01:44;101032.13;;;4.78;100.00
21357;BME280;10836;53.068;18.234;2023-02-17T05:04:11;101031.19;;;4.72;100.00
21357;BME280;10836;53.068;18.234;2023-02-17T05:06:38;101035.91;;;4.77;100.00
21357;BME280;10836;53.068;18.234;2023-02-17T05:09:04;101025.63;;;4.67;100.00
21357;BME280;10836;53.068;18.234;2023-02-17T05:11:31;101029.31;;;4.73;100.00
21357;BME280;10836;53.068;18.234;2023-02-17T05:13:58;101027.66;;;4.72;100.00
21357;BME280;10836;53.068;18.234;2023-02-17T05:16:26;101027.06;;;4.70;100.00
21357;BME280;10836;53.068;18.234;2023-02-17T05:18:52;101023.91;;;4.73;100.00
21357;BME280;10836;53.068;18.234;2023-02-17T05:21:19;101024.50;;;4.75;100.00
21357;BME280;10836;53.068;18.234;2023-02-17T05:23:46;101029.09;;;4.74;100.00
21357;BME280;10836;53.068;18.234;2023-02-17T05:26:13;101024.03;;;4.78;100.00
21357;BME280;10836;53.068;18.234;2023-02-17T05:28:40;101023.91;;;4.73;100.00
21357;BME280;10836;53.068;18.234;2023-02-17T05:31:07;101020.59;;;4.71;100.00
21357;BME280;10836;53.068;18.234;2023-02-17T05:33:34;101024.34;;;4.70;100.00
21357;BME280;10836;53.068;18.234;2023-02-17T05:36:05;101017.75;;;4.65;100.00
21357;BME280;10836;53.068;18.234;2023-02-17T05:38:33;101022.63;;;4.75;100.00
21357;BME280;10836;53.068;18.234;2023-02-17T05:41:00;101022.69;;;4.68;100.00
21357;BME280;10836;53.068;18.234;2023-02-17T05:43:27;101023.91;;;4.73;100.00
21357;BME280;10836;53.068;18.234;2023-02-17T05:45:54;101012.94;;;4.67;100.00
21357;BME280;10836;53.068;18.234;2023-02-17T05:48:21;101013.84;;;4.61;100.00
21357;BME280;10836;53.068;18.234;2023-02-17T05:50:48;101006.19;;;4.58;100.00
21357;BME280;10836;53.068;18.234;2023-02-17T05:53:15;101009.72;;;4.59;100.00
21357;BME280;10836;53.068;18.234;2023-02-17T05:55:42;101005.81;;;4.55;100.00
21357;BME280;10836;53.068;18.234;2023-02-17T05:58:09;101006.63;;;4.55;100.00
21357;BME280;10836;53.068;18.234;2023-02-17T06:00:36;101003.31;;;4.53;100.00
21357;BME280;10836;53.068;18.234;2023-02-17T06:03:03;101004.38;;;4.52;100.00
21357;BME280;10836;53.068;18.234;2023-02-17T06:05:30;100998.44;;;4.44;100.00
21357;BME280;10836;53.068;18.234;2023-02-17T06:07:57;101005.94;;;4.42;100.00
21357;BME280;10836;53.068;18.234;2023-02-17T06:10:24;101010.09;;;4.44;100.00
21357;BME280;10836;53.068;18.234;2023-02-17T06:12:51;101003.25;;;4.42;100.00
21357;BME280;10836;53.068;18.234;2023-02-17T06:15:18;100996.78;;;4.43;100.00
21357;BME280;10836;53.068;18.234;2023-02-17T06:17:45;101010.09;;;4.44;100.00
21357;BME280;10836;53.068;18.234;2023-02-17T06:20:12;100998.81;;;4.47;100.00
21357;BME280;10836;53.068;18.234;2023-02-17T06:22:40;101003.16;;;4.48;100.00
21357;BME280;10836;53.068;18.234;2023-02-17T06:25:08;100996.72;;;4.49;100.00
21357;BME280;10836;53.068;18.234;2023-02-17T06:27:35;100991.69;;;4.53;100.00
21357;BME280;10836;53.068;18.234;2023-02-17T06:30:03;100995.81;;;4.55;100.00
21357;BME280;10836;53.068;18.234;2023-02-17T06:32:30;100999.94;;;4.58;100.00
21357;BME280;10836;53.068;18.234;2023-02-17T06:34:57;100983.50;;;4.59;100.00
21357;BME280;10836;53.068;18.234;2023-02-17T06:37:23;100985.13;;;4.60;100.00
21357;BME280;10836;53.068;18.234;2023-02-17T06:39:51;100988.44;;;4.62;100.00
21357;BME280;10836;53.068;18.234;2023-02-17T06:42:17;100989.03;;;4.64;100.00
21357;BME280;10836;53.068;18.234;2023-02-17T06:44:44;100987.38;;;4.63;100.00
21357;BME280;10836;53.068;18.234;2023-02-17T06:47:11;100993.63;;;4.64;100.00
21357;BME280;10836;53.068;18.234;2023-02-17T06:49:38;100991.28;;;4.67;100.00
21357;BME280;10836;53.068;18.234;2023-02-17T06:52:06;100981.31;;;4.68;100.00
21357;BME280;10836;53.068;18.234;2023-02-17T06:54:33;100987.69;;;4.74;100.00
21357;BME280;10836;53.068;18.234;2023-02-17T06:57:00;100992.28;;;4.73;100.00
21357;BME280;10836;53.068;18.234;2023-02-17T06:59:27;100985.56;;;4.76;100.00
21357;BME280;10836;53.068;18.234;2023-02-17T07:01:54;100983.94;;;4.75;100.00
21357;BME280;10836;53.068;18.234;2023-02-17T07:04:22;100985.91;;;4.79;100.00
21357;BME280;10836;53.068;18.234;2023-02-17T07:06:48;100981.56;;;4.78;100.00
21357;BME280;10836;53.068;18.234;2023-02-17T07:09:16;100971.47;;;4.85;100.00
21357;BME280;10836;53.068;18.234;2023-02-17T07:11:42;100981.69;;;4.83;100.00
21357;BME280;10836;53.068;18.234;2023-02-17T07:14:11;100978.41;;;4.81;100.00
21357;BME280;10836;53.068;18.234;2023-02-17T07:16:38;100976.66;;;4.87;100.00
21357;BME280;10836;53.068;18.234;2023-02-17T07:19:05;100970.66;;;4.85;100.00
21357;BME280;10836;53.068;18.234;2023-02-17T07:21:33;100971.72;;;4.84;100.00
21357;BME280;10836;53.068;18.234;2023-02-17T07:24:00;100975.00;;;4.86;100.00
21357;BME280;10836;53.068;18.234;2023-02-17T07:26:27;100970.78;;;4.90;100.00
21357;BME280;10836;53.068;18.234;2023-02-17T07:28:54;100967.50;;;4.88;100.00
21357;BME280;10836;53.068;18.234;2023-02-17T07:31:21;100974.56;;;4.89;100.00
21357;BME280;10836;53.068;18.234;2023-02-17T07:33:48;100970.78;;;4.90;100.00
21357;BME280;10836;53.068;18.234;2023-02-17T07:36:16;100977.84;;;4.91;100.00
21357;BME280;10836;53.068;18.234;2023-02-17T07:38:44;100971.25;;;4.87;100.00
21357;BME280;10836;53.068;18.234;2023-02-17T07:41:19;100973.34;;;4.85;100.00
21357;BME280;10836;53.068;18.234;2023-02-17T07:43:47;100968.53;;;4.87;100.00
21357;BME280;10836;53.068;18.234;2023-02-17T07:46:15;100971.72;;;4.84;100.00
21357;BME280;10836;53.068;18.234;2023-02-17T07:48:43;100971.72;;;4.84;100.00
21357;BME280;10836;53.068;18.234;2023-02-17T07:51:13;100968.25;;;4.77;100.00
21357;BME280;10836;53.068;18.234;2023-02-17T07:53:40;100974.28;;;4.79;100.00
21357;BME280;10836;53.068;18.234;2023-02-17T07:56:11;100968.59;;;4.68;100.00
21357;BME280;10836;53.068;18.234;2023-02-17T07:58:40;100957.31;;;4.72;100.00
21357;BME280;10836;53.068;18.234;2023-02-17T08:01:09;100958.00;;;4.67;100.00
21357;BME280;10836;53.068;18.234;2023-02-17T08:03:37;100945.63;;;4.59;100.00
21357;BME280;10836;53.068;18.234;2023-02-17T08:06:08;100941.63;;;4.62;100.00
21357;BME280;10836;53.068;18.234;2023-02-17T08:08:36;100938.41;;;4.53;100.00
21357;BME280;10836;53.068;18.234;2023-02-17T08:11:21;100937.81;;;4.51;100.00
21357;BME280;10836;53.068;18.234;2023-02-17T08:14:09;100933.69;;;4.49;100.00
21357;BME280;10836;53.068;18.234;2023-02-17T08:16:38;100925.88;;;4.59;100.00
21357;BME280;10836;53.068;18.234;2023-02-17T08:19:06;100920.09;;;4.55;100.00
21357;BME280;10836;53.068;18.234;2023-02-17T08:21:33;100920.09;;;4.55;100.00
21357;BME280;10836;53.068;18.234;2023-02-17T08:24:00;100917.16;;;4.57;100.00
21357;BME280;10836;53.068;18.234;2023-02-17T08:26:27;100905.06;;;4.59;100.00
21357;BME280;10836;53.068;18.234;2023-02-17T08:28:54;100900.00;;;4.63;100.00
21357;BME280;10836;53.068;18.234;2023-02-17T08:31:24;100892.13;;;4.61;100.00
21357;BME280;10836;53.068;18.234;2023-02-17T08:33:52;100893.00;;;4.74;100.00
21357;BME280;10836;53.068;18.234;2023-02-17T08:36:20;100893.00;;;4.74;100.00
21357;BME280;10836;53.068;18.234;2023-02-17T08:38:48;100893.09;;;4.79;100.00
21357;BME280;10836;53.068;18.234;2023-02-17T08:41:23;100889.94;;;4.82;100.00
21357;BME280;10836;53.068;18.234;2023-02-17T08:43:51;100881.97;;;4.87;100.00
21357;BME280;10836;53.068;18.234;2023-02-17T08:46:18;100883.16;;;4.91;100.00
21357;BME280;10836;53.068;18.234;2023-02-17T08:48:45;100882.31;;;4.90;100.00
21357;BME280;10836;53.068;18.234;2023-02-17T08:51:14;100882.09;;;4.92;100.00
21357;BME280;10836;53.068;18.234;2023-02-17T08:53:42;100877.88;;;4.96;100.00
21357;BME280;10836;53.068;18.234;2023-02-17T08:56:09;100878.34;;;4.93;100.00
21357;BME280;10836;53.068;18.234;2023-02-17T08:58:36;100880.81;;;4.94;100.00
21357;BME280;10836;53.068;18.234;2023-02-17T09:01:03;100872.47;;;4.96;100.00
21357;BME280;10836;53.068;18.234;2023-02-17T09:03:33;100868.00;;;5.01;100.00
21357;BME280;10836;53.068;18.234;2023-02-17T09:06:00;100868.81;;;5.02;100.00
21357;BME280;10836;53.068;18.234;2023-02-17T09:08:27;100862.94;;;5.05;100.00
21357;BME280;10836;53.068;18.234;2023-02-17T09:10:54;100864.47;;;5.01;100.00
21357;BME280;10836;53.068;18.234;2023-02-17T09:13:21;100878.25;;;5.11;100.00
21357;BME280;10836;53.068;18.234;2023-02-17T09:15:48;100865.69;;;5.17;100.00
21357;BME280;10836;53.068;18.234;2023-02-17T09:18:20;100857.19;;;5.13;100.00
21357;BME280;10836;53.068;18.234;2023-02-17T09:20:48;100851.41;;;5.21;100.00
21357;BME280;10836;53.068;18.234;2023-02-17T09:23:15;100853.19;;;5.27;100.00
21357;BME280;10836;53.068;18.234;2023-02-17T09:25:42;100846.13;;;5.26;100.00
21357;BME280;10836;53.068;18.234;2023-02-17T09:28:10;100847.53;;;5.29;100.00
21357;BME280;10836;53.068;18.234;2023-02-17T09:30:39;100845.66;;;5.29;100.00
21357;BME280;10836;53.068;18.234;2023-02-17T09:33:07;100843.19;;;5.28;100.00
21357;BME280;10836;53.068;18.234;2023-02-17T09:35:36;100834.81;;;5.29;100.00
21357;BME280;10836;53.068;18.234;2023-02-17T09:38:04;100831.66;;;5.32;100.00
21357;BME280;10836;53.068;18.234;2023-02-17T09:40:41;100831.75;;;5.38;100.00
21357;BME280;10836;53.068;18.234;2023-02-17T09:43:15;100838.94;;;5.44;100.00
21357;BME280;10836;53.068;18.234;2023-02-17T09:45:46;100825.41;;;5.44;100.00
21357;BME280;10836;53.068;18.234;2023-02-17T09:48:17;100826.22;;;5.44;100.00
21357;BME280;10836;53.068;18.234;2023-02-17T09:50:58;100816.56;;;5.48;100.00
21357;BME280;10836;53.068;18.234;2023-02-17T09:53:38;100810.69;;;5.51;100.00
21357;BME280;10836;53.068;18.234;2023-02-17T09:56:14;100804.44;;;5.51;100.00
21357;BME280;10836;53.068;18.234;2023-02-17T09:58:46;100791.84;;;5.56;100.00
21357;BME280;10836;53.068;18.234;2023-02-17T10:01:21;100797.22;;;5.68;100.00
21357;BME280;10836;53.068;18.234;2023-02-17T10:04:18;100793.09;;;5.65;100.00
21357;BME280;10836;53.068;18.234;2023-02-17T10:07:00;100790.72;;;5.69;100.00
21357;BME280;10836;53.068;18.234;2023-02-17T10:09:32;100787.53;;;5.72;100.00
21357;BME280;10836;53.068;18.234;2023-02-17T10:12:02;100781.06;;;5.73;100.00
21357;BME280;10836;53.068;18.234;2023-02-17T10:14:41;100781.06;;;5.73;100.00
21357;BME280;10836;53.068;18.234;2023-02-17T10:17:31;100769.16;;;5.74;100.00
21357;BME280;10836;53.068;18.234;2023-02-17T10:20:06;100763.75;;;5.74;100.00
21357;BME280;10836;53.068;18.234;2023-02-17T10:22:33;100764.91;;;5.78;100.00
21357;BME280;10836;53.068;18.234;2023-02-17T10:25:05;100756.53;;;5.80;100.00
21357;BME280;10836;53.068;18.234;2023-02-17T10:27:43;100753.00;;;5.79;100.00
21357;BME280;10836;53.068;18.234;2023-02-17T10:33:28;100744.06;;;5.90;100.00
21357;BME280;10836;53.068;18.234;2023-02-17T10:38:52;100732.84;;;5.87;100.00
21357;BME280;10836;53.068;18.234;2023-02-17T10:41:26;100715.88;;;5.91;100.00
21357;BME280;10836;53.068;18.234;2023-02-17T10:43:59;100709.16;;;5.94;100.00
21357;BME280;10836;53.068;18.234;2023-02-17T10:46:30;100690.31;;;5.87;100.00
21357;BME280;10836;53.068;18.234;2023-02-17T10:48:58;100694.78;;;5.93;100.00
21357;BME280;10836;53.068;18.234;2023-02-17T10:51:28;100691.59;;;5.96;100.00
21357;BME280;10836;53.068;18.234;2023-02-17T10:54:18;100682.31;;;5.92;100.00
21357;BME280;10836;53.068;18.234;2023-02-17T10:56:49;100678.03;;;5.96;100.00
21357;BME280;10836;53.068;18.234;2023-02-17T10:59:26;100666.03;;;5.92;100.00
21357;BME280;10836;53.068;18.234;2023-02-17T11:02:20;100659.31;;;5.95;100.00
21357;BME280;10836;53.068;18.234;2023-02-17T11:04:51;100648.31;;;6.02;100.00
21357;BME280;10836;53.068;18.234;2023-02-17T11:07:31;100638.06;;;6.04;100.00
21357;BME280;10836;53.068;18.234;2023-02-17T11:10:01;100628.28;;;6.03;100.00
21357;BME280;10836;53.068;18.234;2023-02-17T11:12:37;100626.69;;;6.07;100.00
21357;BME280;10836;53.068;18.234;2023-02-17T11:15:14;100621.84;;;6.09;100.00
21357;BME280;10836;53.068;18.234;2023-02-17T11:17:42;100623.00;;;6.13;100.00
21357;BME280;10836;53.068;18.234;2023-02-17T11:22:41;100607.88;;;6.17;100.00
21357;BME280;10836;53.068;18.234;2023-02-17T11:25:30;100600.50;;;6.29;100.00
21357;BME280;10836;53.068;18.234;2023-02-17T11:28:09;100592.94;;;6.31;100.00
21357;BME280;10836;53.068;18.234;2023-02-17T11:30:40;100587.03;;;6.34;100.00
21357;BME280;10836;53.068;18.234;2023-02-17T11:33:15;100585.38;;;6.33;100.00
21357;BME280;10836;53.068;18.234;2023-02-17T11:35:48;100584.06;;;6.36;100.00
21357;BME280;10836;53.068;18.234;2023-02-17T11:38:18;100567.03;;;6.40;100.00
21357;BME280;10836;53.068;18.234;2023-02-17T11:40:56;100566.63;;;6.48;100.00
21357;BME280;10836;53.068;18.234;2023-02-17T11:43:25;100555.78;;;6.48;100.00
21357;BME280;10836;53.068;18.234;2023-02-17T11:55:00;100542.41;;;6.63;100.00
21357;BME280;10836;53.068;18.234;2023-02-17T12:03:26;100518.41;;;6.55;100.00
21357;BME280;10836;53.068;18.234;2023-02-17T12:06:30;100502.63;;;6.52;100.00
21357;BME280;10836;53.068;18.234;2023-02-17T12:09:16;100504.28;;;6.53;100.00
21357;BME280;10836;53.068;18.234;2023-02-17T12:19:57;100483.59;;;6.47;100.00
21357;BME280;10836;53.068;18.234;2023-02-17T12:22:43;100485.25;;;6.48;100.00
21357;BME280;10836;53.068;18.234;2023-02-17T12:25:27;100477.13;;;6.48;100.00
21357;BME280;10836;53.068;18.234;2023-02-17T12:31:00;100456.47;;;6.47;100.00
21357;BME280;10836;53.068;18.234;2023-02-17T12:36:08;100433.66;;;6.43;100.00
21357;BME280;10836;53.068;18.234;2023-02-17T12:38:47;100428.22;;;6.43;100.00
21357;BME280;10836;53.068;18.234;2023-02-17T12:41:24;100412.53;;;6.45;100.00
21357;BME280;10836;53.068;18.234;2023-02-17T12:44:00;100415.22;;;6.45;100.00
21357;BME280;10836;53.068;18.234;2023-02-17T12:46:31;100413.34;;;6.46;100.00
21357;BME280;10836;53.068;18.234;2023-02-17T12:49:15;100409.31;;;6.48;100.00
21357;BME280;10836;53.068;18.234;2023-02-17T12:51:51;100402.50;;;6.51;100.00
21357;BME280;10836;53.068;18.234;2023-02-17T12:54:30;100392.50;;;6.51;100.00
21357;BME280;10836;53.068;18.234;2023-02-17T12:57:12;100387.63;;;6.53;100.00
21357;BME280;10836;53.068;18.234;2023-02-17T12:59:42;100389.00;;;6.56;100.00
21357;BME280;10836;53.068;18.234;2023-02-17T13:02:14;100384.41;;;6.56;100.00
21357;BME280;10836;53.068;18.234;2023-02-17T13:04:44;100370.09;;;6.61;100.00
21357;BME280;10836;53.068;18.234;2023-02-17T13:09:54;100361.13;;;6.60;100.00
21357;BME280;10836;53.068;18.234;2023-02-17T13:14:58;100349.81;;;6.68;100.00
21357;BME280;10836;53.068;18.234;2023-02-17T13:17:38;100348.19;;;6.67;100.00
21357;BME280;10836;53.068;18.234;2023-02-17T13:22:37;100333.53;;;6.68;100.00
21357;BME280;10836;53.068;18.234;2023-02-17T13:25:04;100321.66;;;6.75;100.00
21357;BME280;10836;53.068;18.234;2023-02-17T13:27:37;100320.03;;;6.74;100.00
21357;BME280;10836;53.068;18.234;2023-02-17T13:32:43;100302.91;;;6.73;100.00
21357;BME280;10836;53.068;18.234;2023-02-17T13:35:30;100300.50;;;6.77;100.00
21357;BME280;10836;53.068;18.234;2023-02-17T13:37:59;100280.69;;;6.76;100.00
21357;BME280;10836;53.068;18.234;2023-02-17T13:42:56;100272.31;;;6.78;100.00
21357;BME280;10836;53.068;18.234;2023-02-17T13:51:01;100251.50;;;6.93;100.00
21357;BME280;10836;53.068;18.234;2023-02-17T13:56:06;100231.16;;;6.96;100.00
21357;BME280;10836;53.068;18.234;2023-02-17T13:58:37;100225.47;;;6.97;100.00
21357;BME280;10836;53.068;18.234;2023-02-17T14:01:07;100213.28;;;7.00;100.00
21357;BME280;10836;53.068;18.234;2023-02-17T14:03:45;100212.19;;;7.01;100.00
21357;BME280;10836;53.068;18.234;2023-02-17T14:06:24;100195.09;;;7.00;100.00
21357;BME280;10836;53.068;18.234;2023-02-17T14:08:51;100197.56;;;7.02;100.00
21357;BME280;10836;53.068;18.234;2023-02-17T14:11:25;100194.28;;;7.00;100.00
21357;BME280;10836;53.068;18.234;2023-02-17T14:13:54;100181.78;;;6.99;100.00
21357;BME280;10836;53.068;18.234;2023-02-17T14:16:32;100181.78;;;6.99;100.00
21357;BME280;10836;53.068;18.234;2023-02-17T14:21:35;100163.91;;;7.03;100.00
21357;BME280;10836;53.068;18.234;2023-02-17T14:24:03;100151.97;;;7.09;100.00